Nearby METAR Reports

 

CWGT - Sisters Island (Auto)
Distance from station: NE 39km
Updated: 2018-08-21 22:00
NOT Current

 Wind from WNW
Wind: WNW 9 km/h
Temperature: 21°C
Dew Point: 10°C
Humidity: 50%
2018/08/22 05:00 CWGT 220500Z AUTO 29005KT 21/10 RMK AO1 SLP146 T02120100 56003
CWGB - Ballenas Island (Auto)
Distance from station: ENE 47km
Updated: 2018-09-24 19:00

 Wind from WNW
Wind: WNW 13 km/h
Temperature: 14°C
Dew Point: 12°C
Humidity: 88%
2018/09/25 02:00 CWGB 250200Z AUTO 30007KT 14/12 RMK AO1 SLP252 T01420115 56007
CYQQ - CFB Comox
Distance from station: N 55km
Updated: 2018-09-24 19:00
Mostly cloudy
Mostly cloudy
 Wind from calm
Wind: Calm
Temperature: 16°C
Dew Point: 11°C
Humidity: 72%
Barometer: 1025.7 hPa
Clouds: Mostly cloudy
Visibility: 32 km
Cloud details: Few Clouds 1219 m
Mostly cloudy 7620 m
2018/09/25 02:00 CYQQ 250200Z 00000KT 20SM FEW040 BKN250 16/11 A3029 RMK SC1CI6 SLP256
 
CYPW - Powell River Airport
Distance from station: NNE 69km
Updated: 2018-09-24 19:00
Partly cloudy
Partly cloudy
 Wind from varies
Wind: varies 4 km/h
Temperature: 12°C
Dew Point: 10°C
Humidity: 88%
Barometer: 1025.7 hPa
Clouds: Partly cloudy
Visibility: 40 km
Cloud details: Partly cloudy 7620 m
2018/09/25 02:00 CYPW 250200Z VRB02KT 25SM SCT250 12/10 A3029 RMK CI3 LAST STFD OBS NEXT OBS 251300 UTC SLP260
CYCD - Nanaimo Airport
Distance from station: ESE 70km
Updated: 2018-09-24 19:00
Partly cloudy
Partly cloudy
 Wind from calm
Wind: Calm
Temperature: 14°C
Dew Point: 10°C
Humidity: 77%
Barometer: 1025.1 hPa
Clouds: Partly cloudy
Visibility: 40 km
Cloud details: Few Clouds 3048 m
Partly cloudy 6401 m
2018/09/25 02:00 CYCD 250200Z 00000KT 25SM FEW100 SCT210 14/10 A3027 RMK AC1CI2 SLP253
CYAZ - Tofino Airport
Distance from station: WSW 73km
Updated: 2018-09-24 18:00
NOT Current
Nearby fog, Few clouds
Nearby fog, Few clouds
 Wind from SSE
Wind: SSE 7 km/h
Temperature: 14°C
Dew Point: 11°C
Humidity: 82%
Barometer: 1025.1 hPa
Summary: Nearby Fog
Clouds: Few Clouds
Visibility: 24 km
Cloud details: Few Clouds 7620 m
2018/09/25 01:00 CYAZ 250100Z 15004KT 15SM VCFG FEW250 14/11 A3027 RMK CI2 FG BANK OFSHR LAST STFD OBS/NEXT 241300UTC SLP254
 
CWEL - Entrance Island (Auto)
Distance from station: E 73km
Updated: 2018-09-24 19:00

 Wind from NW
Wind: NW 15 km/h
Temperature: 14°C
Dew Point: 11°C
Humidity: 82%
2018/09/25 02:00 CWEL 250200Z AUTO 32008KT 14/11 RMK AO1 SLP251 T01400112 56007
CYBL - Campbell River Airport
Distance from station: NNW 88km
Updated: 2018-09-24 19:00
Mostly cloudy
Mostly cloudy
 Wind from calm
Wind: Calm
Temperature: 12°C
Dew Point: 11°C
Humidity: 94%
Barometer: 1025.4 hPa
Clouds: Mostly cloudy
Visibility: 48 km
Cloud details: Few Clouds 762 m
Partly cloudy 2743 m
Mostly cloudy 7010 m
2018/09/25 02:00 CYBL 250200Z 00000KT 30SM FEW025 SCT090 BKN230 12/11 A3028 RMK SC1AC2CI4 SLP256
CWKH - Malahat Highway (Auto)
Distance from station: SE 116km
Updated: 2018-09-24 19:00

 
Temperature: 11°C
Dew Point: 9°C
Humidity: 88%
2018/09/25 02:00 CWKH 250200Z AUTO 11/09 RMK AO1 SLP247 T01100087 58001
 
CYVR - Vancouver Intl Airport
Distance from station: E 118km
Updated: 2018-09-24 19:00
Partly cloudy
Partly cloudy
 Wind from WNW
Wind: WNW 9 km/h
Temperature: 12°C
Dew Point: 11°C
Humidity: 94%
Barometer: 1025.1 hPa
Clouds: Partly cloudy
Visibility: 48 km
Cloud details: Few Clouds 5486 m
Partly cloudy 7620 m
2018/09/25 02:00 CYVR 250200Z 30005KT 30SM FEW180 SCT250 12/11 A3027 RMK AC1CI2 SLP250
CYYJ - Victoria Intl Airport
Distance from station: ESE 120km
Updated: 2018-09-24 19:00
Partly cloudy
Partly cloudy
 Wind from NE
Wind: NE 6 km/h
Temperature: 14°C
Dew Point: 9°C
Humidity: 72%
Barometer: 1025.1 hPa
Clouds: Partly cloudy
Visibility: 32 km
Cloud details: Partly cloudy 7315 m
2018/09/25 02:00 CYYJ 250200Z 04003KT 20SM SCT240 14/09 A3027 RMK CI4 SLP253
CWEB - Estevan Pt. (Auto)
Distance from station: W 129km
Updated: 2018-09-24 19:00

 Wind from N
Wind: N 20 km/h
Temperature: 14°C
Dew Point: 12°C
Humidity: 88%
2018/09/25 02:00 CWEB 250200Z AUTO 35011KT 14/12 RMK AO1 T01350122
 
CWQK - Race Rocks (Auto)
Distance from station: SE 138km
Updated: 2018-09-24 19:00

 Wind from SE
Wind: SE 20 km/h
Temperature: 15°C
Dew Point: 8°C
Humidity: 63%
2018/09/25 02:00 CWQK 250200Z AUTO 14011KT 15/08 RMK AO1 SLP253 T01480080 56004
CWAE - Whistler
Distance from station: NE 167km
Updated: 2018-09-24 18:00
NOT Current
Few Clouds
Few Clouds
 Wind from S
Wind: S 4 km/h
Temperature: 13°C
Dew Point: 7°C
Humidity: 67%
Barometer: 1024.4 hPa
Clouds: Few Clouds
Visibility: 24 km
Cloud details: Few Clouds 2286 m
Few Clouds 6401 m
2018/09/25 01:00 CWAE 250100Z 18002KT 15SM FEW075 FEW210 13/07 A3025 RMK AC1CI1 AC TR LAST OBS/NEXT 251300UTC WND ESTD SLP250
CYZT - Port Hardy Airport
Distance from station: NW 244km
Updated: 2018-09-24 19:00
Mostly cloudy
Mostly cloudy
 Wind from WNW
Wind: WNW 13 km/h, Gust: 28 km/h
Temperature: 16°C
Dew Point: 11°C
Humidity: 72%
Barometer: 1026.8 hPa
Clouds: Mostly cloudy
Visibility: 19 km
Cloud details: Few Clouds 1219 m
Few Clouds 5486 m
Mostly cloudy 7315 m
2018/09/25 02:00 CYZT 250200Z 29007G15KT 12SM FEW040 FEW180 BKN240 16/11 A3032 RMK CU1AC1CI5 SLP270
 
CWRU - Solander Isl (Auto)
Distance from station: WNW 247km
Updated: 2018-09-24 19:00

 Wind from NW
Wind: NW 50 km/h
Temperature: 13°C
Dew Point: 13°C
Humidity: 100%
2018/09/25 02:00 CWRU 250200Z AUTO 31027KT 13/13 RMK AO1 PK WND 31031/0116 SLP252 T01340128 55001